Guntersville Observed Data For Previous 48 Hours

Caption
Day and Hour Reservoir Elevation (behind dam)* Tailwater Elevation (below dam)* Average Hourly Discharge*
3/18/2019 1 AM CDT 593.91 566.86 148,372
3/18/2019 2 AM CDT 593.89 566.85 148,230
3/18/2019 3 AM CDT 593.88 566.84 148,087
3/18/2019 4 AM CDT 593.86 566.82 147,943
3/18/2019 5 AM CDT 593.84 566.81 147,750
3/18/2019 6 AM CDT 593.83 566.78 147,603
3/18/2019 7 AM CDT 593.80 566.78 147,415
3/18/2019 8 AM CDT 593.78 566.76 147,175
3/18/2019 9 AM CDT 593.77 566.76 147,032
3/18/2019 10 AM CDT 593.75 566.72 146,888
3/18/2019 11 AM CDT 593.73 566.78 146,698
3/18/2019 12 PM CDT 593.72 566.74 146,553
3/18/2019 1 PM CDT 593.80 565.98 140,408
3/18/2019 2 PM CDT 593.78 565.81 127,753
3/18/2019 3 PM CDT 593.85 565.68 127,935
3/18/2019 4 PM CDT 593.84 565.60 128,170
3/18/2019 5 PM CDT 593.87 565.49 128,232
3/18/2019 6 PM CDT 593.88 565.45 128,400
3/18/2019 7 PM CDT 593.91 565.32 128,532
3/18/2019 8 PM CDT 593.91 565.26 128,600
3/18/2019 9 PM CDT 593.92 565.19 128,697
3/18/2019 10 PM CDT 593.93 565.13 128,763
3/18/2019 11 PM CDT 593.95 565.09 128,865
3/19/2019 12 AM CDT 593.92 565.06 128,832
3/19/2019 1 AM CDT 593.94 565.00 128,795
3/19/2019 2 AM CDT 593.92 564.98 128,798
3/19/2019 3 AM CDT 593.92 564.94 128,700
3/19/2019 4 AM CDT 593.91 564.88 128,698
3/19/2019 5 AM CDT 593.90 564.86 128,600
3/19/2019 6 AM CDT 593.89 564.80 128,533
3/19/2019 7 AM CDT 593.89 564.80 128,500
3/19/2019 8 AM CDT 593.89 564.89 128,500
3/19/2019 9 AM CDT 593.89 564.78 128,500
3/19/2019 10 AM CDT 593.91 564.75 128,565
3/19/2019 11 AM CDT 593.89 564.74 128,567
3/19/2019 12 PM CDT 593.86 564.74 128,392
3/19/2019 1 PM CDT 593.92 564.42 122,213
3/19/2019 2 PM CDT 593.95 564.27 116,202
3/19/2019 3 PM CDT 594.00 564.20 116,423
3/19/2019 4 PM CDT 593.99 564.04 116,532
3/19/2019 5 PM CDT 594.00 563.98 116,530
3/19/2019 6 PM CDT 594.02 563.94 116,625
3/19/2019 7 PM CDT 594.04 563.94 116,737
3/19/2019 8 PM CDT 594.04 563.82 116,800
3/19/2019 9 PM CDT 594.05 563.82 116,800
3/19/2019 10 PM CDT 594.04 563.75 116,800
3/19/2019 11 PM CDT 594.04 563.70 116,800
3/20/2019 12 AM CDT 594.04 563.65 116,800
3/20/2019 1 AM CDT 594.03 563.64 116,773
3/20/2019 2 AM CDT 594.05 563.63 116,785
3/20/2019 3 AM CDT 594.04 563.57 116,800
3/20/2019 4 AM CDT 594.00 563.55 116,683
3/20/2019 5 AM CDT 593.99 563.52 116,532
3/20/2019 6 AM CDT 593.98 563.49 116,500
3/20/2019 7 AM CDT 593.96 563.49 116,402
3/20/2019 8 AM CDT 593.91 563.49 116,294

Elevations are in feet above sea level. Discharges are in cubic feet per second and are reported at the end of the hour.